Pagrindinis puslapis
METAR-TAF:

METAR-TAF

Oro uostai :

Førde, Norvegija

platuma: 61-27N, ilguma: 005-52E, Aukštis: 150 m

Dabartinis oras

Ataskaita buvo paskelbta 22 minutes, ne 09:20 UTC
Vėjas 2 kt nuo kintamojo kryptimis
Temperatūra -7°C
Drėgmė 93%
Slėgis 1010 hPa
Matomumas 10 km arba daugiau
Mažai debesys ne aukštis 1200 ft
Išsisklaidę debesys ne aukštis 3000 ft

METAR: ENBL 070920Z VRB02KT 9999 FEW012 SCT030 M07/M08 Q1010

Laikas: 10:42 (09:42 UTC)


TAF: trūkstamas

Orai ataskaitas ir orų prognozės (METAR, TAF).

turimą stotys yra geltonos ir raudonos taškus žemėlapyje.

Perkelti pele per norėdami pamatyti stoties vardą.

Tada spustelėkite, norėdami matyti oro stebėjimo ir prognozės.

Norėdami pakeisti žemėlapį: spustelėkite ant žalios mygtukų su juodo kryžiaus žemyn,; žalią mygtuką su brūkšneliu, jei norite nutolinti; arba žalių rodyklių gretimoms žemėlapius.


METAR-TAF: